Creston, California
Current Conditions -  °F | °C
As of 4:53 AM on Saturday 25 Oct 2014 (Local Time) from KPRB Reporting Station
Clear Clear  
Wind Chill: 48°   Ceiling: Unl
Heat Index: 48°   Visibility: 10mi
Dew Point: 44°   Wind: 3mph
Humidity: 86%   Direction: 140°SE
Pressure: 30.02"   Gusts: NA
Location:  35.52°N, 120.52°W
Report Text: KPRB 251153Z AUTO 14003KT 10SM CLR 09/07 A3002 RMK AO2 SLP162 T00890067 10128 20089 55002 TSNO
Loading
Personal Weather Stations






























Interactive Weather Map
Tropical Storm Tracking
New forecast layout! Learn more

10-Day Weather Forecast

Advertisements
Track Severe Weather on mobile